Time;durP1;ratioP1;P1;durP2;ratioP2;P2;SDS_P1;SDS_P2;PMS_P1;PMS_P2;Temp;Humidity;BMP_temperature;BMP_pressure;BME280_temperature;BME280_humidity;BME280_pressure;Samples;Min_cycle;Max_cycle;Signal;HPM_P1;HPM_P2
2022/12/28 00:00:40;;;;;;;7.17;3.70;;;6.00;91.90;;;6.32;59.65;99552.28;4967438;28;115110;-74
2022/12/28 00:03:08;;;;;;;4.67;3.37;;;5.90;91.90;;;6.34;59.45;99550.94;4973996;28;113085;-76
2022/12/28 00:05:34;;;;;;;5.90;3.40;;;6.00;92.00;;;6.36;60.00;99542.41;4975442;28;123977;-73
2022/12/28 00:08:00;;;;;;;7.87;3.57;;;6.20;92.10;;;6.39;60.11;99537.25;4997322;28;123380;-74
2022/12/28 00:10:47;;;;;;;7.93;3.33;;;6.00;92.10;;;6.44;59.54;99530.94;4972974;28;111821;-75
2022/12/28 00:13:16;;;;;;;6.27;3.30;;;6.00;92.00;;;6.46;59.53;99530.66;4960652;28;112473;-74
2022/12/28 00:15:42;;;;;;;6.20;3.03;;;6.00;92.00;;;6.48;59.89;99529.31;4969881;28;123935;-75
2022/12/28 00:18:09;;;;;;;5.50;2.87;;;6.00;92.00;;;6.50;59.72;99524.38;4960411;28;122568;-74
2022/12/28 00:20:37;;;;;;;3.90;2.67;;;6.10;92.00;;;6.50;59.54;99518.91;4959654;28;113426;-74
2022/12/28 00:23:05;;;;;;;7.83;3.00;;;6.10;92.00;;;6.55;59.60;99512.59;4957615;28;113122;-74
2022/12/28 00:25:35;;;;;;;4.60;3.37;;;6.10;92.00;;;6.57;59.11;99508.47;4987239;28;123929;-76
2022/12/28 00:28:02;;;;;;;5.10;3.43;;;6.10;92.00;;;6.58;59.19;99506.56;4966002;28;123765;-72
2022/12/28 00:30:28;;;;;;;6.33;2.80;;;6.10;91.90;;;6.60;59.64;99504.38;4960993;28;114085;-72
2022/12/28 00:32:55;;;;;;;6.57;3.03;;;6.20;92.00;;;6.60;59.35;99507.94;4972042;28;112788;-74
2022/12/28 00:35:21;;;;;;;3.43;2.43;;;6.20;91.90;;;6.59;59.40;99500.81;4967889;28;123125;-74
2022/12/28 00:37:47;;;;;;;4.30;3.20;;;6.10;91.90;;;6.61;59.23;99504.13;4974246;28;123713;-72
2022/12/28 00:40:15;;;;;;;3.70;3.23;;;6.20;91.90;;;6.61;59.13;99501.38;4973405;28;114032;-73
2022/12/28 00:42:41;;;;;;;5.53;3.37;;;6.20;92.00;;;6.62;59.53;99502.19;4976252;28;114030;-73
2022/12/28 00:45:08;;;;;;;2.60;2.40;;;6.10;92.00;;;6.61;59.46;99495.88;4972716;28;123936;-75
2022/12/28 00:47:35;;;;;;;5.77;3.10;;;6.20;92.00;;;6.60;59.27;99494.22;4973128;28;124402;-76
2022/12/28 00:50:01;;;;;;;5.57;3.00;;;6.10;91.90;;;6.61;59.45;99501.38;5005281;28;114161;-77
2022/12/28 00:52:28;;;;;;;5.70;3.40;;;6.60;92.10;;;6.59;59.53;99495.31;4972419;28;113504;-72
2022/12/28 00:54:54;;;;;;;4.90;3.33;;;6.20;92.10;;;6.61;59.27;99484.91;4970147;28;123852;-72
2022/12/28 00:57:21;;;;;;;7.73;2.90;;;6.20;92.00;;;6.64;59.79;99492.59;4968110;28;123641;-73
2022/12/28 00:59:47;;;;;;;2.90;2.30;;;6.20;92.00;;;6.66;59.79;99486.00;4968875;28;114133;-74
2022/12/28 01:02:14;;;;;;;5.20;3.20;;;6.20;92.00;;;6.68;59.30;99478.31;4968474;28;114234;-74
2022/12/28 01:04:40;;;;;;;4.23;2.83;;;6.20;92.00;;;6.70;58.83;99473.38;4968954;28;123967;-75
2022/12/28 01:07:07;;;;;;;6.03;3.30;;;6.20;92.00;;;6.71;59.07;99477.78;4970482;28;123639;-76
2022/12/28 01:09:36;;;;;;;4.43;2.53;;;6.20;92.00;;;6.74;59.08;99479.97;4967478;28;114242;-73
2022/12/28 01:12:03;;;;;;;3.80;2.53;;;6.30;92.00;;;6.74;59.23;99467.06;4959088;28;113677;-73
2022/12/28 01:14:29;;;;;;;3.63;2.63;;;6.30;92.00;;;6.74;58.96;99456.06;4960821;28;123405;-73
2022/12/28 01:16:55;;;;;;;5.47;2.70;;;6.30;92.00;;;6.74;59.53;99452.50;4956817;28;124319;-73
2022/12/28 01:19:22;;;;;;;6.43;3.07;;;6.30;92.00;;;6.74;59.13;99460.75;4965451;28;114906;-73
2022/12/28 01:21:51;;;;;;;4.70;2.43;;;6.20;91.90;;;6.74;58.91;99455.25;4991794;28;113847;-72
2022/12/28 01:24:17;;;;;;;7.60;3.27;;;6.60;92.10;;;6.73;59.34;99448.94;4968671;28;123678;-73
2022/12/28 01:26:44;;;;;;;4.03;2.67;;;6.20;92.00;;;6.71;59.45;99445.63;4971792;28;124025;-72
2022/12/28 01:29:10;;;;;;;7.60;2.70;;;6.30;92.00;;;6.73;59.12;99448.94;4973689;28;114980;-73
2022/12/28 01:31:37;;;;;;;4.67;2.90;;;6.30;92.00;;;6.74;59.56;99447.03;4973544;28;114935;-73
2022/12/28 01:34:03;;;;;;;3.90;2.43;;;6.30;92.10;;;6.73;59.24;99434.41;4972271;28;123877;-72
2022/12/28 01:36:33;;;;;;;5.13;2.83;;;6.20;92.00;;;6.73;59.18;99434.41;4970085;28;123749;-72
2022/12/28 01:39:05;;;;;;;3.87;2.90;;;6.20;92.00;;;6.73;59.05;99437.97;4963032;28;113397;-75
2022/12/28 01:41:36;;;;;;;4.43;2.80;;;6.20;92.00;;;6.71;59.41;99431.09;4966893;28;113918;-72
2022/12/28 01:44:23;;;;;;;4.70;2.80;;;6.20;92.00;;;6.69;59.48;99436.88;4967541;28;123483;-73
2022/12/28 01:47:02;;;;;;;4.30;2.70;;;6.90;92.30;;;6.66;59.37;99431.06;4863997;28;124057;-73
2022/12/28 01:49:46;;;;;;;4.40;2.70;;;6.20;92.00;;;6.66;59.45;99423.66;4881742;28;114105;-75
2022/12/28 01:52:38;;;;;;;4.00;2.90;;;6.20;92.00;;;6.66;59.80;99420.09;4864248;28;113762;-73
2022/12/28 01:55:20;;;;;;;5.57;2.90;;;6.20;92.00;;;6.64;59.29;99410.22;4870086;28;124448;-73
2022/12/28 01:58:05;;;;;;;4.50;2.73;;;6.20;92.10;;;6.64;59.81;99412.97;4873312;28;123695;-73
2022/12/28 02:00:32;;;;;;;3.53;2.23;;;6.20;92.10;;;6.63;59.38;99405.81;4878819;28;112969;-74
2022/12/28 02:03:09;;;;;;;4.30;2.60;;;6.20;92.10;;;6.64;59.38;99401.97;4862149;28;113832;-73
2022/12/28 02:05:43;;;;;;;3.30;2.30;;;6.20;92.00;;;6.64;59.66;99390.19;4860278;28;123798;-73
2022/12/28 02:08:14;;;;;;;4.80;2.40;;;6.20;92.00;;;6.62;59.33;99387.69;4873580;28;123278;-75
2022/12/28 02:10:41;;;;;;;5.03;2.60;;;6.20;92.00;;;6.64;59.22;99381.94;4889890;28;114345;-73
2022/12/28 02:13:08;;;;;;;3.43;2.50;;;6.20;92.10;;;6.68;59.44;99374.78;4889463;28;113974;-73
2022/12/28 02:15:35;;;;;;;4.00;2.30;;;6.20;92.10;;;6.71;59.21;99379.72;4873479;28;123922;-73
2022/12/28 02:18:22;;;;;;;2.60;2.10;;;6.30;92.10;;;6.74;59.41;99379.19;4873489;28;122947;-73
2022/12/28 02:21:35;;;;;;;4.93;2.73;;;6.30;92.10;;;6.79;59.55;99375.63;4836559;29;115531;-74
2022/12/28 02:24:46;;;;;;;3.63;2.43;;;6.30;92.10;;;6.77;59.07;99366.84;4872978;28;115419;-73
2022/12/28 02:27:52;;;;;;;2.97;2.03;;;6.30;92.00;;;6.75;59.18;99371.78;4910410;28;123060;-75
2022/12/28 02:30:19;;;;;;;5.30;2.80;;;6.30;92.00;;;6.73;59.71;99365.75;4930654;28;124015;-74
2022/12/28 02:33:02;;;;;;;2.47;1.80;;;6.30;92.10;;;6.75;59.48;99358.06;4899217;28;113721;-74
2022/12/28 02:35:47;;;;;;;3.93;2.47;;;6.30;92.00;;;6.78;59.03;99360.25;4914611;28;113417;-73
2022/12/28 02:38:37;;;;;;;2.90;2.13;;;7.40;92.50;;;6.82;59.04;99353.09;4918216;28;123002;-76
2022/12/28 02:41:12;;;;;;;2.30;1.90;;;6.30;92.00;;;6.81;59.30;99340.47;4913146;28;123652;-73
2022/12/28 02:43:38;;;;;;;3.50;2.10;;;6.30;92.00;;;6.84;58.97;99342.69;4910568;28;114092;-73
2022/12/28 02:52:22;;;;;;;3.20;1.70;;;6.50;92.00;;;6.94;59.07;99330.88;4921078;28;124233;-74
2022/12/28 02:58:31;;;;;;;2.37;1.73;;;6.50;91.90;;;7.01;58.86;99324.00;4932796;28;114858;-74
2022/12/28 03:01:38;;;;;;;2.13;1.70;;;6.60;92.00;;;7.03;59.20;99315.47;4966530;28;123191;-74
2022/12/28 03:04:13;;;;;;;2.50;1.67;;;6.60;91.90;;;7.06;59.03;99309.41;4967870;28;123854;-74
2022/12/28 03:10:14;;;;;;;1.67;1.20;;;6.70;91.90;;;7.19;58.29;99286.06;4980145;28;114487;-74
2022/12/28 03:13:00;;;;;;;3.20;1.20;;;6.70;91.90;;;7.23;58.54;99293.47;4968989;28;125024;-74
2022/12/28 03:15:33;;;;;;;2.60;1.70;;;6.70;91.80;;;7.26;58.29;99292.91;4968640;28;124481;-75
2022/12/28 03:32:25;;;;;;;3.90;1.70;;;7.00;91.80;;;7.45;58.02;99290.38;4966897;28;113758;-74
2022/12/28 03:34:52;;;;;;;1.57;1.47;;;7.00;91.70;;;7.47;58.25;99287.38;4969225;28;123968;-72
2022/12/28 03:37:37;;;;;;;1.67;1.30;;;7.00;91.70;;;7.50;57.83;99295.88;4969978;28;123914;-73
2022/12/28 03:40:41;;;;;;;2.23;1.60;;;7.00;91.70;;;7.49;58.12;99280.44;4969095;28;114561;-74
2022/12/28 03:46:44;;;;;;;1.53;1.30;;;7.00;91.60;;;7.52;58.04;99284.56;4971573;28;124741;-74
2022/12/28 03:49:11;;;;;;;1.87;1.50;;;7.00;91.60;;;7.50;58.23;99271.13;4968414;28;123688;-74
2022/12/28 03:51:39;;;;;;;1.40;1.30;;;7.10;91.60;;;7.55;57.95;99277.69;4967812;28;114238;-73
2022/12/28 03:54:05;;;;;;;2.13;1.50;;;8.60;92.20;;;7.58;58.06;99268.91;4968594;28;113781;-73
2022/12/28 03:56:32;;;;;;;1.93;1.60;;;7.10;91.60;;;7.60;57.85;99263.91;4967086;28;124163;-74
2022/12/28 03:58:59;;;;;;;3.90;1.60;;;7.20;91.60;;;7.63;57.72;99263.34;4964283;28;123788;-74
2022/12/28 04:01:26;;;;;;;3.10;1.37;;;7.10;91.50;;;7.64;57.72;99252.09;4966445;28;114178;-74
2022/12/28 04:03:52;;;;;;;2.80;1.30;;;7.20;91.50;;;7.67;57.90;99243.25;4963086;28;113951;-73
2022/12/28 04:06:19;;;;;;;1.43;1.00;;;7.20;91.50;;;7.70;57.94;99237.19;4969367;28;125587;-74
2022/12/28 04:08:46;;;;;;;3.00;1.50;;;7.20;91.50;;;7.72;57.67;99240.50;4969099;28;124014;-74
2022/12/28 04:11:13;;;;;;;1.97;1.67;;;7.20;91.50;;;7.75;57.54;99242.69;4968317;28;115067;-73
2022/12/28 04:13:40;;;;;;;2.43;1.57;;;9.40;92.30;;;7.77;57.52;99238.84;4967352;28;114037;-74
2022/12/28 04:16:12;;;;;;;2.70;1.60;;;7.30;91.50;;;7.79;57.36;99244.84;4998809;28;124067;-74
2022/12/28 04:18:41;;;;;;;2.67;1.93;;;7.30;91.40;;;7.77;57.54;99238.84;4965146;28;123791;-74
2022/12/28 04:21:09;;;;;;;2.83;1.40;;;7.30;91.40;;;7.75;57.47;99228.91;4961185;28;114012;-74
2022/12/28 04:23:36;;;;;;;2.10;1.50;;;7.30;91.40;;;7.77;57.28;99231.41;4961819;28;113238;-74
2022/12/28 04:26:10;;;;;;;2.07;1.30;;;7.30;91.30;;;7.77;57.48;99230.59;4967870;28;124330;-74
2022/12/28 04:28:38;;;;;;;2.60;1.80;;;7.30;91.40;;;7.76;57.15;99235.25;4971276;28;124094;-75
2022/12/28 04:31:06;;;;;;;2.20;1.20;;;7.30;91.30;;;7.75;57.48;99225.34;4969142;28;113486;-74
2022/12/28 04:33:35;;;;;;;2.20;1.53;;;7.30;91.30;;;7.78;57.71;99219.28;4956276;28;112714;-75
2022/12/28 04:36:21;;;;;;;3.00;1.30;;;7.60;91.50;;;7.81;57.38;99209.66;4968698;28;124093;-74
2022/12/28 04:38:48;;;;;;;1.63;1.43;;;7.30;91.30;;;7.81;57.35;99204.97;4950319;28;123855;-74
2022/12/28 04:41:14;;;;;;;1.67;1.57;;;7.30;91.30;;;7.80;57.12;99214.31;4957584;28;113256;-73
2022/12/28 04:43:43;;;;;;;7.00;1.60;;;7.40;91.30;;;7.80;57.33;99208.00;4968034;28;113892;-74
2022/12/28 04:46:13;;;;;;;1.47;1.23;;;7.30;91.20;;;7.81;57.33;99204.97;4965438;28;124158;-74
2022/12/28 04:48:40;;;;;;;3.27;1.20;;;7.40;91.30;;;7.81;57.28;99210.47;4968067;28;123725;-74
2022/12/28 04:51:20;;;;;;;3.77;1.50;;;7.40;91.30;;;7.84;57.43;99209.88;4977826;28;113209;-74
2022/12/28 04:53:47;;;;;;;3.77;1.73;;;7.40;91.30;;;7.78;57.39;99211.03;4969133;28;114288;-74
2022/12/28 04:56:16;;;;;;;7.33;1.40;;;7.40;91.30;;;7.80;57.43;99213.50;4970397;28;124278;-73
2022/12/28 04:58:43;;;;;;;1.80;1.27;;;7.30;91.30;;;7.80;57.43;99214.31;4966667;28;123786;-73
2022/12/28 05:01:12;;;;;;;1.30;1.20;;;7.30;91.30;;;7.82;57.60;99214.88;4968531;28;114919;-74
2022/12/28 05:03:41;;;;;;;3.20;1.53;;;7.40;91.30;;;7.83;57.56;99207.44;4966973;28;114642;-74
2022/12/28 05:06:12;;;;;;;3.20;1.53;;;7.40;91.30;;;7.86;57.33;99198.63;4964912;28;123026;-74
2022/12/28 05:08:39;;;;;;;2.00;1.47;;;7.40;91.30;;;7.87;57.31;99192.84;4962023;28;123828;-73
2022/12/28 05:11:15;;;;;;;2.57;1.47;;;7.40;91.30;;;7.92;56.80;99195.53;4977444;28;112409;-74
2022/12/28 05:13:41;;;;;;;4.20;1.87;;;7.40;91.30;;;7.91;57.15;99193.91;4964867;28;113867;-74
2022/12/28 05:16:14;;;;;;;2.27;1.57;;;7.40;91.30;;;7.93;57.46;99185.38;4965661;28;122982;-74
2022/12/28 05:18:41;;;;;;;1.70;1.30;;;7.50;91.30;;;7.95;57.31;99194.97;4963582;28;124340;-74
2022/12/28 05:21:16;;;;;;;4.23;1.60;;;7.50;91.30;;;7.95;57.07;99194.97;4967730;28;114241;-74
2022/12/28 05:23:43;;;;;;;2.93;1.50;;;7.50;91.20;;;7.96;57.34;99198.56;4967977;28;113748;-74
2022/12/28 05:26:16;;;;;;;1.73;1.20;;;7.50;91.20;;;7.97;57.23;99190.00;4966549;28;123488;-74
2022/12/28 05:28:43;;;;;;;3.03;1.80;;;7.50;91.20;;;7.95;56.98;99192.22;4966474;28;123906;-72
2022/12/28 05:31:14;;;;;;;1.97;1.50;;;7.50;91.20;;;7.96;57.09;99196.63;4967733;28;114048;-73
2022/12/28 05:33:41;;;;;;;1.50;1.30;;;7.50;91.20;;;7.97;57.26;99181.75;4971679;28;113519;-72
2022/12/28 05:36:11;;;;;;;3.73;1.30;;;7.50;91.10;;;8.00;57.25;99185.84;5010029;28;123721;-72
2022/12/28 05:38:38;;;;;;;2.20;1.60;;;7.50;91.10;;;8.03;57.29;99187.22;4963063;28;124339;-74
2022/12/28 05:41:07;;;;;;;1.53;1.20;;;8.20;91.40;;;8.06;57.00;99189.38;4965090;28;114330;-75
2022/12/28 05:43:34;;;;;;;2.27;1.50;;;7.60;91.20;;;8.08;56.97;99182.50;4963405;28;113960;-74
2022/12/28 05:46:05;;;;;;;3.37;1.20;;;7.60;91.10;;;8.12;56.85;99182.75;4961667;28;124210;-72
2022/12/28 05:48:33;;;;;;;2.93;1.30;;;7.60;91.10;;;8.13;56.80;99189.91;4965818;28;123834;-72
2022/12/28 05:51:09;;;;;;;5.07;1.73;;;7.70;91.10;;;8.15;56.80;99183.00;4965891;28;115228;-72
2022/12/28 05:53:37;;;;;;;1.60;1.30;;;7.70;91.10;;;8.15;56.86;99195.94;4968123;28;114409;-72
2022/12/28 05:56:11;;;;;;;1.10;1.00;;;8.20;91.30;;;8.15;56.70;99191.25;4968689;28;124012;-72
2022/12/28 05:58:38;;;;;;;2.10;1.20;;;7.70;91.00;;;8.16;56.67;99189.31;4998364;28;123927;-72
2022/12/28 06:01:08;;;;;;;3.87;1.40;;;7.70;91.10;;;8.18;56.67;99179.66;4967882;28;114234;-72
2022/12/28 06:03:36;;;;;;;1.30;1.13;;;7.70;91.10;;;8.22;56.73;99188.19;4963003;28;113751;-72
2022/12/28 06:06:11;;;;;;;2.50;1.43;;;7.80;91.10;;;8.26;56.63;99178.22;4950490;28;124532;-74
2022/12/28 06:08:39;;;;;;;2.43;1.43;;;7.80;91.10;;;8.28;56.58;99176.03;4948375;28;123916;-74
2022/12/28 06:11:09;;;;;;;1.70;1.30;;;7.80;91.10;;;8.30;56.77;99182.06;4987001;28;114140;-74
2022/12/28 06:13:37;;;;;;;2.00;1.27;;;7.80;91.10;;;8.34;56.65;99169.34;4969647;28;112921;-78
2022/12/28 06:16:15;;;;;;;1.53;1.37;;;7.90;91.00;;;8.38;56.40;99164.94;4968620;28;123854;-74
2022/12/28 06:18:43;;;;;;;2.07;1.27;;;7.90;91.10;;;8.41;56.37;99169.06;4966152;28;123890;-74
2022/12/28 06:21:22;;;;;;;2.53;1.30;;;7.90;91.00;;;8.46;56.33;99165.41;4967992;28;114746;-74
2022/12/28 06:23:49;;;;;;;1.57;1.27;;;7.90;91.00;;;8.47;56.42;99161.56;4967797;28;113693;-73
2022/12/28 06:26:19;;;;;;;2.33;1.40;;;8.10;91.00;;;8.50;56.31;99149.97;4969163;28;123856;-74
2022/12/28 06:28:49;;;;;;;1.17;1.07;;;8.10;91.00;;;8.54;56.13;99156.53;4955903;28;123797;-74
2022/12/28 06:31:30;;;;;;;2.73;1.30;;;8.10;91.00;;;8.58;56.13;99163.94;4969713;28;114235;-74
2022/12/28 06:33:59;;;;;;;5.90;1.83;;;10.00;91.30;;;8.60;56.07;99160.91;4951436;28;113392;-74
2022/12/28 06:36:29;;;;;;;1.37;1.13;;;8.10;91.00;;;8.62;56.23;99170.50;4969003;28;124366;-73
2022/12/28 06:38:58;;;;;;;3.23;1.17;;;8.10;90.90;;;8.65;56.16;99162.75;4967049;28;123873;-74
2022/12/28 06:41:27;;;;;;;1.70;1.20;;;8.10;90.90;;;8.67;55.97;99161.34;4966509;28;114878;-73
2022/12/28 06:43:54;;;;;;;1.60;1.33;;;8.20;90.90;;;8.69;55.90;99158.31;4971223;28;114447;-73
2022/12/28 06:46:23;;;;;;;1.70;1.50;;;8.20;90.90;;;8.70;55.80;99163.53;4970590;28;123826;-74
2022/12/28 06:48:50;;;;;;;1.23;1.10;;;8.20;90.80;;;8.71;55.83;99158.88;4969866;28;124359;-73
2022/12/28 06:51:18;;;;;;;4.63;1.50;;;8.20;90.80;;;8.71;55.92;99154.16;4969432;28;114243;-73
2022/12/28 06:53:46;;;;;;;1.97;1.30;;;8.20;90.80;;;8.72;56.05;99164.06;4969632;28;114193;-73
2022/12/28 06:56:22;;;;;;;2.10;1.17;;;8.20;90.80;;;8.76;55.75;99159.63;4963583;28;124391;-73
2022/12/28 06:58:50;;;;;;;1.77;1.33;;;8.20;90.70;;;8.75;55.63;99149.69;4968496;28;123789;-73
2022/12/28 07:01:28;;;;;;;1.43;1.33;;;8.40;90.80;;;8.78;55.68;99157.38;4967484;28;114441;-73
2022/12/28 07:03:57;;;;;;;1.83;1.67;;;8.30;90.70;;;8.78;55.45;99157.38;4987116;28;112127;-73
2022/12/28 07:06:26;;;;;;;2.63;1.30;;;8.20;90.70;;;8.77;55.72;99141.97;4964471;28;124039;-73
2022/12/28 07:09:03;;;;;;;3.37;1.20;;;8.30;90.70;;;8.79;55.49;99150.78;4965975;28;123899;-73
2022/12/28 07:11:30;;;;;;;3.30;1.50;;;8.30;90.70;;;8.79;55.61;99145.25;4970315;28;113298;-72
2022/12/28 07:13:57;;;;;;;4.20;1.90;;;8.30;90.70;;;8.80;55.58;99144.13;4947462;28;113164;-73
2022/12/28 07:16:25;;;;;;;5.10;1.47;;;8.30;90.60;;;8.80;55.36;99141.38;4964962;28;124457;-73
2022/12/28 07:18:52;;;;;;;2.17;1.43;;;8.30;90.60;;;8.78;55.38;99137.28;4950582;28;122891;-74
2022/12/28 07:21:23;;;;;;;5.13;1.53;;;8.30;90.60;;;8.79;55.29;99131.50;4973875;28;114314;-73
2022/12/28 07:23:51;;;;;;;1.77;1.53;;;8.30;90.60;;;8.80;55.25;99132.31;4980779;28;113916;-74
2022/12/28 07:26:22;;;;;;;1.93;1.20;;;8.50;90.70;;;8.81;55.47;99123.75;4968773;28;125088;-74
2022/12/28 07:28:52;;;;;;;1.60;1.17;;;8.30;90.60;;;8.83;55.44;99128.97;4966469;28;124001;-73
2022/12/28 07:31:34;;;;;;;2.70;1.50;;;8.30;90.60;;;8.85;55.59;99124.81;4965547;28;115053;-73
2022/12/28 07:34:01;;;;;;;2.77;1.20;;;8.30;90.60;;;8.86;55.68;99122.84;4963682;28;114932;-73
2022/12/28 07:36:30;;;;;;;2.60;1.53;;;8.40;90.60;;;8.88;55.48;99122.59;4967733;28;123206;-73
2022/12/28 07:38:57;;;;;;;1.77;1.23;;;8.40;90.60;;;8.88;55.31;99126.16;4957573;28;123361;-73
2022/12/28 07:41:27;;;;;;;2.10;1.50;;;8.40;90.60;;;8.89;55.38;99118.69;4981795;28;114138;-73
2022/12/28 07:43:53;;;;;;;2.73;1.67;;;9.50;91.00;;;8.90;55.23;99125.88;4960310;28;113218;-73
2022/12/28 07:46:30;;;;;;;1.77;1.30;;;8.40;90.50;;;8.90;55.13;99121.19;4998032;28;124046;-77
2022/12/28 07:48:56;;;;;;;1.40;1.20;;;8.40;90.60;;;8.89;55.37;99127.78;4962408;28;123618;-73
2022/12/28 07:51:30;;;;;;;3.77;1.60;;;8.60;90.60;;;8.90;55.38;99131.38;4974287;28;114019;-73
2022/12/28 07:53:58;;;;;;;2.10;1.20;;;8.40;90.50;;;8.88;55.28;99126.16;4944548;28;114571;-74
2022/12/28 07:56:27;;;;;;;6.43;1.70;;;9.20;90.80;;;8.88;55.37;99128.91;4970655;28;124146;-73
2022/12/28 07:58:56;;;;;;;3.07;1.57;;;8.40;90.50;;;8.87;55.38;99123.72;4984418;28;124061;-74
2022/12/28 08:01:26;;;;;;;2.90;1.67;;;8.40;90.50;;;8.87;55.26;99127.28;4959782;28;114317;-74
2022/12/28 08:03:58;;;;;;;4.30;1.60;;;8.40;90.50;;;8.88;55.27;99125.34;4969106;28;114220;-74
2022/12/28 08:06:25;;;;;;;2.80;1.60;;;8.40;90.50;;;8.86;55.35;99122.84;4966656;28;123815;-73
2022/12/28 08:08:56;;;;;;;3.17;1.60;;;8.40;90.50;;;8.85;55.24;99113.78;4967498;28;121787;-74
2022/12/28 08:11:27;;;;;;;3.73;1.80;;;8.40;90.40;;;8.83;55.32;99121.50;4958489;28;114188;-74
2022/12/28 08:13:56;;;;;;;2.30;1.50;;;8.40;90.40;;;8.81;55.29;99112.75;4964736;28;113877;-74
2022/12/28 08:16:25;;;;;;;2.37;1.50;;;8.40;90.40;;;8.81;55.38;99115.50;5000540;28;124368;-73
2022/12/28 08:18:52;;;;;;;4.90;1.53;;;8.50;90.50;;;8.84;55.29;99117.66;4968103;28;124357;-74
2022/12/28 08:21:29;;;;;;;2.60;1.50;;;8.40;90.80;;;8.85;55.49;99112.97;4970559;28;115235;-74
2022/12/28 08:23:57;;;;;;;3.63;1.77;;;8.40;90.50;;;8.85;55.36;99113.78;4966473;28;113738;-74
2022/12/28 08:26:28;;;;;;;1.77;1.30;;;10.00;90.60;;;8.87;55.40;99112.69;4970382;28;123307;-73
2022/12/28 08:28:58;;;;;;;2.20;1.37;;;8.40;90.50;;;8.91;55.44;99117.28;4984451;28;123420;-75
2022/12/28 08:31:29;;;;;;;2.10;1.30;;;8.40;90.40;;;8.95;55.51;99112.84;4957753;28;114270;-74
2022/12/28 08:33:58;;;;;;;1.90;1.50;;;8.50;90.50;;;8.98;55.19;99112.25;4996896;28;113776;-73
2022/12/28 08:36:25;;;;;;;1.53;1.40;;;8.50;90.50;;;9.00;55.17;99092.66;4966928;28;123812;-73
2022/12/28 08:38:52;;;;;;;4.03;1.50;;;8.50;90.40;;;9.03;54.73;99095.66;4966406;28;124061;-74
2022/12/28 08:41:21;;;;;;;3.40;1.20;;;8.50;90.40;;;9.05;54.92;99092.59;4996145;28;112596;-73
2022/12/28 08:43:49;;;;;;;2.07;1.40;;;8.50;90.40;;;9.06;54.95;99085.97;4957237;28;114001;-73
2022/12/28 08:46:19;;;;;;;3.23;1.60;;;8.60;90.40;;;9.09;54.83;99090.91;4963970;28;123905;-73
2022/12/28 08:48:48;;;;;;;3.23;1.93;;;8.60;90.40;;;9.11;54.89;99088.69;4967993;28;124004;-74
2022/12/28 08:51:26;;;;;;;1.83;1.50;;;8.60;90.40;;;9.15;54.66;99089.72;4949336;28;112292;-73
2022/12/28 08:53:53;;;;;;;3.77;1.50;;;8.60;90.30;;;9.12;55.07;99090.31;4949791;28;113710;-73
2022/12/28 08:56:23;;;;;;;1.50;1.40;;;9.20;90.50;;;9.17;54.90;99093.00;4951983;28;124134;-73
2022/12/28 08:58:51;;;;;;;2.13;1.53;;;8.90;90.40;;;9.23;55.65;99088.22;4959778;28;123760;-75
2022/12/28 09:01:27;;;;;;;2.07;1.57;;;8.70;90.50;;;9.34;56.40;99086.97;4955913;28;114172;-75
2022/12/28 09:03:56;;;;;;;1.93;1.63;;;8.80;91.00;;;9.49;55.98;99083.19;4952105;28;113677;-75
2022/12/28 09:06:33;;;;;;;3.03;1.70;;;8.90;91.00;;;9.60;55.74;99083.84;4980977;28;124468;-74
2022/12/28 09:09:01;;;;;;;5.00;1.50;;;9.90;91.30;;;9.72;56.39;99082.28;4966547;28;123950;-75
2022/12/28 09:11:28;;;;;;;2.10;1.50;;;9.10;91.20;;;9.84;55.76;99081.00;4948516;28;114239;-74
2022/12/28 09:13:55;;;;;;;4.03;1.37;;;9.20;91.10;;;9.95;55.58;99086.03;4959579;28;114914;-75
2022/12/28 09:16:28;;;;;;;3.60;1.50;;;9.30;91.10;;;10.10;55.90;99086.91;4983952;28;123596;-74
2022/12/28 09:18:58;;;;;;;3.10;1.60;;;9.40;91.40;;;10.19;55.07;99079.56;4964546;28;123537;-75
2022/12/28 09:21:29;;;;;;;2.10;1.57;;;9.50;91.00;;;10.24;54.58;99073.16;4968515;28;114233;-74
2022/12/28 09:23:55;;;;;;;3.47;1.40;;;9.60;90.80;;;10.31;54.42;99076.34;4966776;28;113889;-74
2022/12/28 09:26:26;;;;;;;1.63;1.33;;;9.70;90.80;;;10.38;54.21;99076.78;4967130;28;124328;-75
2022/12/28 09:29:02;;;;;;;3.23;1.30;;;9.80;90.70;;;10.45;53.57;99077.22;4965219;28;123748;-75
2022/12/28 09:31:31;;;;;;;4.90;1.60;;;9.80;90.50;;;10.46;53.61;99073.31;4981867;28;113488;-75
2022/12/28 09:33:58;;;;;;;2.40;1.43;;;9.90;90.30;;;10.50;53.60;99068.81;4965515;28;114183;-75
2022/12/28 09:36:32;;;;;;;2.43;1.40;;;9.90;90.20;;;10.55;53.48;99063.19;4966047;28;123950;-75
2022/12/28 09:39:04;;;;;;;2.10;1.40;;;10.10;89.50;;;10.61;53.69;99055.59;4966290;28;123884;-76
2022/12/28 09:41:47;;;;;;;3.20;1.40;;;10.00;89.50;;;10.72;53.90;99059.00;4962758;28;114155;-75
2022/12/28 09:44:16;;;;;;;3.03;1.10;;;10.10;90.10;;;10.80;53.91;99053.59;4958603;28;113932;-74
2022/12/28 09:47:09;;;;;;;1.80;1.40;;;10.20;89.90;;;10.92;53.48;99047.53;4989972;28;123303;-75
2022/12/28 09:50:08;;;;;;;1.87;1.40;;;11.20;90.20;;;10.96;53.24;99048.56;4940660;28;123001;-75
2022/12/28 09:53:20;;;;;;;1.70;1.10;;;10.40;90.00;;;11.05;53.01;99049.47;4964599;28;114266;-75
2022/12/28 09:56:22;;;;;;;3.60;1.17;;;10.40;89.50;;;11.22;52.67;99053.53;4961530;28;116113;-75
2022/12/28 09:58:50;;;;;;;2.10;1.40;;;10.60;90.00;;;11.25;52.10;99044.59;4992513;28;123240;-76
2022/12/28 10:01:18;;;;;;;2.37;1.53;;;10.60;88.60;;;11.25;51.95;99041.84;4946829;28;125625;-74
2022/12/28 10:03:46;;;;;;;2.13;1.10;;;10.60;87.80;;;11.25;51.70;99041.84;4960290;28;115478;-75
2022/12/28 10:06:23;;;;;;;3.17;1.33;;;11.10;88.40;;;11.28;51.96;99028.22;4968253;28;115007;-75
2022/12/28 10:08:58;;;;;;;4.80;1.40;;;10.80;87.90;;;11.33;51.96;99030.03;4968374;28;124540;-76
2022/12/28 10:11:33;;;;;;;2.00;1.33;;;10.70;87.70;;;11.37;51.70;99031.06;4969904;28;122892;-74
2022/12/28 10:14:16;;;;;;;1.40;1.13;;;10.80;87.80;;;11.47;51.97;99027.22;4950638;28;114548;-74
2022/12/28 10:16:43;;;;;;;2.20;1.27;;;10.90;88.10;;;11.52;51.61;99026.28;4972414;28;114168;-76
2022/12/28 10:19:16;;;;;;;1.57;1.30;;;11.30;87.90;;;11.57;51.77;99021.44;4954932;28;123802;-74
2022/12/28 10:21:45;;;;;;;2.00;1.50;;;11.00;87.60;;;11.60;50.99;99022.75;4988826;28;124067;-76
2022/12/28 10:24:13;;;;;;;1.67;1.20;;;11.00;87.00;;;11.57;50.65;99015.91;4961874;28;114851;-75
2022/12/28 10:26:43;;;;;;;2.30;1.30;;;11.00;86.40;;;11.54;50.49;99010.19;4944658;28;113050;-75
2022/12/28 10:29:19;;;;;;;1.60;1.40;;;11.00;86.20;;;11.53;50.59;99011.34;4951828;28;124036;-75
2022/12/28 10:32:11;;;;;;;1.67;1.20;;;11.00;85.90;;;11.49;50.22;99000.88;4990692;28;124778;-74
2022/12/28 10:34:57;;;;;;;4.80;1.60;;;11.00;85.80;;;11.48;50.31;98993.72;4955166;28;114649;-74
2022/12/28 10:37:31;;;;;;;4.60;1.60;;;11.00;85.80;;;11.49;50.45;98989.81;4968994;28;115187;-74
2022/12/28 10:40:07;;;;;;;2.33;1.20;;;11.00;85.80;;;11.52;50.47;98998.63;4965128;28;124839;-75
2022/12/28 10:42:39;;;;;;;2.13;1.40;;;11.00;85.70;;;11.52;50.08;98985.59;4949187;28;123720;-74
2022/12/28 10:45:18;;;;;;;1.80;1.30;;;11.00;85.20;;;11.54;50.33;98974.22;4984924;28;114519;-74
2022/12/28 10:47:51;;;;;;;2.57;1.43;;;11.00;85.40;;;11.55;50.07;98964.78;4966607;28;113644;-74
2022/12/28 10:50:51;;;;;;;2.17;1.70;;;11.00;85.10;;;11.54;50.18;98963.97;4970092;28;123834;-75
2022/12/28 10:53:37;;;;;;;2.00;1.33;;;11.00;85.20;;;11.58;50.04;98964.16;4951111;28;123764;-76
2022/12/28 10:56:13;;;;;;;1.97;1.40;;;11.00;84.90;;;11.57;49.86;98968.88;4985715;28;114655;-76
2022/12/28 10:58:44;;;;;;;2.80;1.37;;;11.10;84.70;;;11.60;49.66;98972.97;4952020;28;115241;-75
2022/12/28 11:01:28;;;;;;;2.57;1.20;;;11.10;84.70;;;11.62;49.70;98967.94;4939863;28;124094;-74
2022/12/28 11:03:54;;;;;;;2.00;1.30;;;11.10;84.60;;;11.64;49.36;98957.38;4957600;28;123989;-74
2022/12/28 11:06:27;;;;;;;1.50;1.20;;;11.30;84.60;;;11.67;49.62;98968.63;4988102;28;113418;-75
2022/12/28 11:09:16;;;;;;;3.33;1.40;;;11.20;84.50;;;11.78;49.26;98952.56;4955739;28;113040;-74
2022/12/28 11:11:45;;;;;;;2.27;1.20;;;11.30;84.30;;;11.89;49.34;98940.13;4952394;28;124052;-74
2022/12/28 11:14:23;;;;;;;1.77;1.00;;;11.30;84.40;;;12.04;49.13;98943.63;4963170;28;124110;-74